createdAt,value
2023-03-28T00:02:24.342Z,2.50
2023-03-28T00:04:52.686Z,0.97
2023-03-28T00:07:20.708Z,2.73
2023-03-28T00:09:51.271Z,2.10
2023-03-28T00:12:18.366Z,1.57
2023-03-28T00:14:46.196Z,4.20
2023-03-28T00:17:13.526Z,2.37
2023-03-28T00:19:40.939Z,0.33
2023-03-28T00:22:08.539Z,4.10
2023-03-28T00:24:38.811Z,1.50
2023-03-28T00:27:07.197Z,2.70
2023-03-28T00:29:34.862Z,1.23
2023-03-28T00:32:02.048Z,1.03
2023-03-28T00:34:29.240Z,0.73
2023-03-28T00:36:56.373Z,1.40
2023-03-28T00:39:23.565Z,1.57
2023-03-28T00:41:50.729Z,1.10
2023-03-28T00:44:36.349Z,1.40
2023-03-28T00:47:03.553Z,3.63
2023-03-28T00:49:30.656Z,2.27
2023-03-28T00:51:58.921Z,0.83
2023-03-28T00:54:28.854Z,2.93
2023-03-28T00:56:58.972Z,2.37
2023-03-28T00:59:27.535Z,3.33
2023-03-28T01:01:55.451Z,0.80
2023-03-28T01:04:24.570Z,0.90
2023-03-28T01:06:54.832Z,2.63
2023-03-28T01:09:24.046Z,1.37
2023-03-28T01:11:51.802Z,1.87
2023-03-28T01:14:20.507Z,1.40
2023-03-28T01:16:49.260Z,6.57
2023-03-28T01:19:26.599Z,2.50
2023-03-28T01:21:56.682Z,2.33
2023-03-28T01:24:23.814Z,2.20
2023-03-28T01:26:56.547Z,3.53
2023-03-28T01:29:43.862Z,1.17
2023-03-28T01:32:20.313Z,1.33
2023-03-28T01:34:50.201Z,1.33
2023-03-28T01:37:25.901Z,1.90
2023-03-28T01:39:58.787Z,1.27
2023-03-28T01:42:29.913Z,1.93
2023-03-28T01:44:56.986Z,3.60
2023-03-28T01:47:24.085Z,0.93
2023-03-28T01:50:14.407Z,1.53
2023-03-28T01:52:47.225Z,1.60
2023-03-28T01:55:14.309Z,3.90
2023-03-28T01:58:16.971Z,4.40
2023-03-28T02:00:45.916Z,2.00
2023-03-28T02:03:18.685Z,3.27
2023-03-28T02:05:46.996Z,5.43
2023-03-28T02:08:14.606Z,4.80
2023-03-28T02:10:43.202Z,3.77
2023-03-28T02:13:13.020Z,2.83
2023-03-28T02:15:41.867Z,6.70
2023-03-28T02:18:13.537Z,2.60
2023-03-28T02:20:41.553Z,4.13
2023-03-28T02:23:16.284Z,2.50
2023-03-28T02:25:43.868Z,1.40
2023-03-28T02:28:12.591Z,4.10
2023-03-28T02:30:40.023Z,4.00
2023-03-28T02:33:09.422Z,5.10
2023-03-28T02:35:51.332Z,7.13
2023-03-28T02:38:28.434Z,3.10
2023-03-28T02:41:07.897Z,3.00
2023-03-28T02:43:50.319Z,4.20
2023-03-28T02:46:23.626Z,1.30
2023-03-28T02:48:56.155Z,5.43
2023-03-28T02:51:30.259Z,4.07
2023-03-28T02:54:09.616Z,5.20
2023-03-28T02:56:37.207Z,2.53
2023-03-28T02:59:09.880Z,3.93
2023-03-28T03:01:37.093Z,1.93
2023-03-28T03:04:04.297Z,3.43
2023-03-28T03:06:35.059Z,4.00
2023-03-28T03:09:02.274Z,3.33
2023-03-28T03:11:29.372Z,3.43
2023-03-28T03:13:57.375Z,2.67
2023-03-28T03:16:24.635Z,2.33
2023-03-28T03:18:51.787Z,3.60
2023-03-28T03:21:18.828Z,2.13
2023-03-28T03:23:46.096Z,1.93
2023-03-28T03:26:13.175Z,3.30
2023-03-28T03:28:41.036Z,3.70
2023-03-28T03:31:08.542Z,2.37
2023-03-28T03:33:37.694Z,3.27
2023-03-28T03:36:05.688Z,2.53
2023-03-28T03:38:32.962Z,1.57
2023-03-28T03:41:00.306Z,2.20
2023-03-28T03:43:27.853Z,3.27
2023-03-28T03:45:56.211Z,0.97
2023-03-28T03:48:23.688Z,0.50
2023-03-28T03:50:51.439Z,1.33
2023-03-28T03:53:18.556Z,1.47
2023-03-28T03:55:46.192Z,1.03
2023-03-28T03:58:13.791Z,2.47
2023-03-28T04:00:40.858Z,0.93
2023-03-28T04:03:08.661Z,0.40
2023-03-28T04:05:52.744Z,1.57
2023-03-28T04:08:19.817Z,1.37
2023-03-28T04:10:47.755Z,1.33
2023-03-28T04:13:14.826Z,0.20
2023-03-28T04:15:42.060Z,2.50
2023-03-28T04:18:09.908Z,0.77
2023-03-28T04:20:37.258Z,1.70
2023-03-28T04:23:05.925Z,2.67
2023-03-28T04:25:33.432Z,1.03
2023-03-28T04:28:01.835Z,3.53
2023-03-28T04:30:28.965Z,2.30
2023-03-28T04:32:56.105Z,1.00
2023-03-28T04:35:24.253Z,1.50
2023-03-28T04:37:51.393Z,1.17
2023-03-28T04:40:18.622Z,0.67
2023-03-28T04:42:45.819Z,0.50
2023-03-28T04:45:14.086Z,0.80
2023-03-28T04:47:42.637Z,1.87
2023-03-28T04:50:10.104Z,2.70
2023-03-28T04:52:37.272Z,6.57
2023-03-28T04:55:04.712Z,3.00
2023-03-28T04:57:31.859Z,0.87
2023-03-28T04:59:59.017Z,4.10
2023-03-28T05:02:26.156Z,0.73
2023-03-28T05:04:53.536Z,0.87
2023-03-28T05:07:20.632Z,1.33
2023-03-28T05:09:48.045Z,2.23
2023-03-28T05:12:15.618Z,2.30
2023-03-28T05:14:42.867Z,2.80
2023-03-28T05:17:09.933Z,1.20
2023-03-28T05:19:37.044Z,2.20
2023-03-28T05:22:04.152Z,1.80
2023-03-28T05:24:31.640Z,1.80
2023-03-28T05:26:58.686Z,1.80
2023-03-28T05:29:25.861Z,4.50
2023-03-28T05:31:52.998Z,2.47
2023-03-28T05:34:21.356Z,2.10
2023-03-28T05:36:48.466Z,2.57
2023-03-28T05:39:15.945Z,1.47
2023-03-28T05:41:43.030Z,3.03
2023-03-28T05:44:10.323Z,2.53
2023-03-28T05:46:37.450Z,1.67
2023-03-28T05:49:04.601Z,1.00
2023-03-28T05:51:31.704Z,1.30
2023-03-28T05:53:58.792Z,2.17
2023-03-28T05:56:25.912Z,2.40
2023-03-28T05:58:53.005Z,1.30
2023-03-28T06:01:23.279Z,3.00
2023-03-28T06:03:50.684Z,1.67
2023-03-28T06:06:17.950Z,1.97
2023-03-28T06:08:45.279Z,1.77
2023-03-28T06:11:12.310Z,0.80
2023-03-28T06:13:39.466Z,4.63
2023-03-28T06:16:06.648Z,1.97
2023-03-28T06:18:34.018Z,2.50
2023-03-28T06:21:01.698Z,2.20
2023-03-28T06:23:29.099Z,1.60
2023-03-28T06:25:56.193Z,2.63
2023-03-28T06:28:23.278Z,1.23
2023-03-28T06:30:51.001Z,1.03
2023-03-28T06:33:18.081Z,2.20
2023-03-28T06:35:45.333Z,2.20
2023-03-28T06:38:12.525Z,1.90
2023-03-28T06:40:39.817Z,1.90
2023-03-28T06:43:06.872Z,1.60
2023-03-28T06:45:33.964Z,2.00
2023-03-28T06:48:01.218Z,1.47
2023-03-28T06:50:28.328Z,2.00
2023-03-28T06:52:55.652Z,1.93
2023-03-28T06:55:22.813Z,1.40
2023-03-28T06:57:49.973Z,1.40
2023-03-28T07:00:17.898Z,1.80
2023-03-28T07:02:45.178Z,1.47
2023-03-28T07:05:12.408Z,3.13
2023-03-28T07:07:39.446Z,1.53
2023-03-28T07:10:06.882Z,3.03
2023-03-28T07:12:34.037Z,3.03
2023-03-28T07:15:01.307Z,2.43
2023-03-28T07:17:28.400Z,2.07
2023-03-28T07:19:55.561Z,4.47
2023-03-28T07:22:22.624Z,1.87
2023-03-28T07:24:49.713Z,1.70
2023-03-28T07:27:17.253Z,1.83
2023-03-28T07:29:44.524Z,1.20
2023-03-28T07:32:11.782Z,1.77
2023-03-28T07:34:38.932Z,3.00
2023-03-28T07:37:06.455Z,2.10
2023-03-28T07:39:34.460Z,2.87
2023-03-28T07:42:01.675Z,2.00
2023-03-28T07:44:28.719Z,2.60
2023-03-28T07:46:55.814Z,2.50
2023-03-28T07:49:22.868Z,4.97
2023-03-28T07:51:49.959Z,3.70
2023-03-28T07:54:19.863Z,1.63
2023-03-28T07:56:47.353Z,1.57
2023-03-28T07:59:14.869Z,1.83
2023-03-28T08:01:42.878Z,1.80
2023-03-28T08:04:11.347Z,4.17
2023-03-28T08:06:39.004Z,2.37
2023-03-28T08:09:07.449Z,1.43
2023-03-28T08:11:35.624Z,1.43
2023-03-28T08:14:03.803Z,3.63
2023-03-28T08:16:31.086Z,2.63
2023-03-28T08:19:10.114Z,2.23
2023-03-28T08:21:38.762Z,0.93
2023-03-28T08:24:07.723Z,0.90
2023-03-28T08:26:35.132Z,2.07
2023-03-28T08:29:02.354Z,1.53
2023-03-28T08:31:29.708Z,1.73
2023-03-28T08:33:57.110Z,2.33
2023-03-28T08:36:25.203Z,1.53
2023-03-28T08:38:54.419Z,2.70
2023-03-28T08:41:24.612Z,1.30
2023-03-28T08:44:00.401Z,1.73
2023-03-28T08:46:28.598Z,4.17
2023-03-28T08:48:56.380Z,2.23
2023-03-28T08:51:49.593Z,1.03
2023-03-28T08:54:22.693Z,0.93
2023-03-28T08:56:52.650Z,0.83
2023-03-28T08:59:38.437Z,1.90
2023-03-28T09:02:15.351Z,1.57
2023-03-28T09:04:42.643Z,1.77
2023-03-28T09:07:28.699Z,1.77
2023-03-28T09:10:15.122Z,2.33
2023-03-28T09:12:46.073Z,1.17
2023-03-28T09:15:24.934Z,2.40
2023-03-28T09:18:10.824Z,0.97
2023-03-28T09:20:53.915Z,1.70
2023-03-28T09:23:26.922Z,0.87
2023-03-28T09:25:57.926Z,2.43
2023-03-28T09:28:38.483Z,2.03
2023-03-28T09:31:09.188Z,0.93
2023-03-28T09:33:40.760Z,1.93
2023-03-28T09:36:16.215Z,4.10
2023-03-28T09:38:52.846Z,1.57
2023-03-28T09:41:43.022Z,1.20
2023-03-28T09:44:14.759Z,0.80
2023-03-28T09:46:47.007Z,0.90
2023-03-28T09:49:18.144Z,1.57
2023-03-28T09:51:45.604Z,1.87
2023-03-28T09:54:13.445Z,1.27
2023-03-28T09:56:41.632Z,1.53
2023-03-28T09:59:28.914Z,1.77
2023-03-28T10:01:57.323Z,0.53
2023-03-28T10:04:30.534Z,1.20
2023-03-28T10:07:16.643Z,2.97
2023-03-28T10:09:54.181Z,0.83
2023-03-28T10:12:23.813Z,1.63
2023-03-28T10:14:51.019Z,1.63
2023-03-28T10:17:28.756Z,1.43
2023-03-28T10:20:03.252Z,1.27
2023-03-28T10:22:40.082Z,1.33
2023-03-28T10:25:08.614Z,1.07
2023-03-28T10:27:36.771Z,1.07
2023-03-28T10:30:16.209Z,1.27
2023-03-28T10:32:43.477Z,0.70
2023-03-28T10:35:26.643Z,0.40
2023-03-28T10:37:57.806Z,2.40
2023-03-28T10:40:30.168Z,0.40
2023-03-28T10:42:58.123Z,1.00
2023-03-28T10:45:25.386Z,1.20
2023-03-28T10:47:54.734Z,0.88
2023-03-28T10:50:25.924Z,1.73
2023-03-28T10:53:19.535Z,0.83
2023-03-28T10:56:07.285Z,0.20
2023-03-28T10:58:45.591Z,0.83
2023-03-28T11:01:22.655Z,1.40
2023-03-28T11:04:08.059Z,1.10
2023-03-28T11:06:47.107Z,1.53
2023-03-28T11:09:25.058Z,1.50
2023-03-28T11:11:52.111Z,0.47
2023-03-28T11:14:19.228Z,1.20
2023-03-28T11:16:49.002Z,0.87
2023-03-28T11:19:21.923Z,0.50
2023-03-28T11:21:52.342Z,3.03
2023-03-28T11:24:26.288Z,1.10
2023-03-28T11:26:57.469Z,0.90
2023-03-28T11:29:43.066Z,0.50
2023-03-28T11:32:17.443Z,1.33
2023-03-28T11:34:47.876Z,0.70
2023-03-28T11:37:21.016Z,1.17
2023-03-28T11:40:08.965Z,2.87
2023-03-28T11:42:39.658Z,0.80
2023-03-28T11:45:28.506Z,0.73
2023-03-28T11:48:19.924Z,1.47
2023-03-28T11:50:57.977Z,1.20
2023-03-28T11:53:27.885Z,1.70
2023-03-28T11:56:04.895Z,0.77
2023-03-28T11:58:33.848Z,1.03
2023-03-28T12:01:18.752Z,1.10
2023-03-28T12:03:52.082Z,1.53
2023-03-28T12:06:39.474Z,1.00
2023-03-28T12:09:12.470Z,0.60
2023-03-28T12:11:57.751Z,1.53
2023-03-28T12:14:37.761Z,4.30
2023-03-28T12:17:11.724Z,1.80
2023-03-28T12:19:40.911Z,0.73
2023-03-28T12:22:19.277Z,1.37
2023-03-28T12:24:50.282Z,0.60
2023-03-28T12:27:20.122Z,2.50
2023-03-28T12:29:56.617Z,0.53
2023-03-28T12:32:34.401Z,0.90
2023-03-28T12:35:05.341Z,1.85
2023-03-28T12:37:33.243Z,0.80
2023-03-28T12:40:19.853Z,1.57
2023-03-28T12:42:47.655Z,1.57
2023-03-28T12:45:18.798Z,2.03
2023-03-28T12:47:47.390Z,1.10
2023-03-28T12:50:26.896Z,0.80
2023-03-28T12:52:54.402Z,2.07
2023-03-28T12:55:24.655Z,3.17
2023-03-28T12:57:52.389Z,2.13
2023-03-28T13:00:42.593Z,0.70
2023-03-28T13:03:28.545Z,1.30
2023-03-28T13:06:12.126Z,1.63
2023-03-28T13:08:58.283Z,3.70
2023-03-28T13:11:44.629Z,1.37
2023-03-28T13:14:14.707Z,2.07
2023-03-28T13:16:47.498Z,3.40
2023-03-28T13:19:18.435Z,3.17
2023-03-28T13:21:47.883Z,1.23
2023-03-28T13:24:41.088Z,1.83
2023-03-28T13:27:17.140Z,1.53
2023-03-28T13:29:44.179Z,1.27
2023-03-28T13:32:24.567Z,1.57
2023-03-28T13:34:56.742Z,1.70
2023-03-28T13:37:24.717Z,1.67
2023-03-28T13:39:52.811Z,1.27
2023-03-28T13:42:28.908Z,2.17
2023-03-28T13:44:57.720Z,1.63
2023-03-28T13:47:43.087Z,1.90
2023-03-28T13:50:19.536Z,1.10
2023-03-28T13:52:46.624Z,2.63
2023-03-28T13:55:24.370Z,3.87
2023-03-28T13:57:52.222Z,1.33
2023-03-28T14:00:23.179Z,1.60
2023-03-28T14:02:51.669Z,2.30
2023-03-28T14:05:26.242Z,2.43
2023-03-28T14:07:54.330Z,1.83
2023-03-28T14:10:21.592Z,2.63
2023-03-28T14:12:51.282Z,2.57
2023-03-28T14:15:22.804Z,2.57
2023-03-28T14:17:50.615Z,2.22
2023-03-28T14:20:18.601Z,1.40
2023-03-28T14:22:59.685Z,2.87
2023-03-28T14:25:27.953Z,2.93
2023-03-28T14:27:56.378Z,0.70
2023-03-28T14:30:23.500Z,5.17
2023-03-28T14:32:57.263Z,2.67
2023-03-28T14:35:26.046Z,3.47
2023-03-28T14:37:54.588Z,2.27
2023-03-28T14:40:24.653Z,2.67
2023-03-28T14:42:56.276Z,2.27
2023-03-28T14:45:26.304Z,3.03
2023-03-28T14:47:54.672Z,3.33
2023-03-28T14:50:22.283Z,2.27
2023-03-28T14:52:49.608Z,2.70
2023-03-28T14:55:21.323Z,2.73
2023-03-28T14:57:50.235Z,1.60
2023-03-28T15:00:22.436Z,2.93
2023-03-28T15:02:50.102Z,1.23
2023-03-28T15:05:18.997Z,2.60
2023-03-28T15:07:46.655Z,1.87
2023-03-28T15:10:22.832Z,2.60
2023-03-28T15:13:12.991Z,1.87
2023-03-28T15:15:45.266Z,1.67
2023-03-28T15:18:15.193Z,1.63
2023-03-28T15:20:44.243Z,3.00
2023-03-28T15:23:16.773Z,2.40
2023-03-28T15:25:44.829Z,2.77
2023-03-28T15:28:16.216Z,2.00
2023-03-28T15:30:44.814Z,3.40
2023-03-28T15:33:15.320Z,3.37
2023-03-28T15:35:45.682Z,2.13
2023-03-28T15:38:25.080Z,1.87
2023-03-28T15:40:53.512Z,1.40
2023-03-28T15:43:26.440Z,1.57
2023-03-28T15:45:56.178Z,3.83
2023-03-28T15:48:23.851Z,2.63
2023-03-28T15:50:52.645Z,3.37
2023-03-28T15:53:20.536Z,3.87
2023-03-28T15:55:48.457Z,1.87
2023-03-28T15:58:17.097Z,6.53
2023-03-28T16:00:45.995Z,3.00
2023-03-28T16:03:27.257Z,3.20
2023-03-28T16:06:07.792Z,3.33
2023-03-28T16:08:40.232Z,2.90
2023-03-28T16:11:12.890Z,4.07
2023-03-28T16:13:40.117Z,5.27
2023-03-28T16:16:07.872Z,6.17
2023-03-28T16:18:34.930Z,1.77
2023-03-28T16:21:02.931Z,2.97
2023-03-28T16:23:30.010Z,1.60
2023-03-28T16:25:57.177Z,2.33
2023-03-28T16:28:24.351Z,2.63
2023-03-28T16:30:52.924Z,3.20
2023-03-28T16:33:20.296Z,6.17
2023-03-28T16:35:47.415Z,1.87
2023-03-28T16:38:14.586Z,4.67
2023-03-28T16:40:42.480Z,3.23
2023-03-28T16:43:09.681Z,4.50
2023-03-28T16:45:37.998Z,3.50
2023-03-28T16:48:05.352Z,6.03
2023-03-28T16:50:32.438Z,6.07
2023-03-28T16:52:59.650Z,3.60
2023-03-28T16:55:27.141Z,4.00
2023-03-28T16:57:54.209Z,2.97
2023-03-28T17:00:22.796Z,3.83
2023-03-28T17:02:50.052Z,3.03
2023-03-28T17:05:17.599Z,3.37
2023-03-28T17:07:44.748Z,2.63
2023-03-28T17:10:12.114Z,2.60
2023-03-28T17:12:39.292Z,6.33
2023-03-28T17:15:06.683Z,4.13
2023-03-28T17:17:33.892Z,4.67
2023-03-28T17:20:01.281Z,3.37
2023-03-28T17:22:28.441Z,4.60
2023-03-28T17:24:57.039Z,4.57
2023-03-28T17:27:24.210Z,5.70
2023-03-28T17:29:51.713Z,4.80
2023-03-28T17:32:18.998Z,5.30
2023-03-28T17:34:46.316Z,6.03
2023-03-28T17:37:13.434Z,8.13
2023-03-28T17:39:41.054Z,6.93
2023-03-28T17:42:09.056Z,8.60
2023-03-28T17:44:36.204Z,8.67
2023-03-28T17:47:03.511Z,4.90
2023-03-28T17:49:31.104Z,5.50
2023-03-28T17:51:58.369Z,6.67
2023-03-28T17:54:26.132Z,7.03
2023-03-28T17:56:54.059Z,5.90
2023-03-28T17:59:22.176Z,4.60
2023-03-28T18:01:49.690Z,4.70
2023-03-28T18:04:17.539Z,5.33
2023-03-28T18:06:44.949Z,5.63
2023-03-28T18:09:12.126Z,3.63
2023-03-28T18:11:39.622Z,8.47
2023-03-28T18:14:08.446Z,5.63
2023-03-28T18:16:36.390Z,4.13
2023-03-28T18:19:06.680Z,5.20
2023-03-28T18:21:34.431Z,5.33
2023-03-28T18:24:01.556Z,8.53
2023-03-28T18:26:28.882Z,8.27
2023-03-28T18:28:56.067Z,6.10
2023-03-28T18:31:28.142Z,7.23
2023-03-28T18:33:57.239Z,4.27
2023-03-28T18:36:24.984Z,6.13
2023-03-28T18:38:53.044Z,5.10
2023-03-28T18:41:20.474Z,8.83
2023-03-28T18:43:47.973Z,6.17
2023-03-28T18:46:16.153Z,6.87
2023-03-28T18:48:44.663Z,6.03
2023-03-28T18:51:11.929Z,4.63
2023-03-28T18:53:39.063Z,5.90
2023-03-28T18:56:06.727Z,5.73
2023-03-28T18:58:34.285Z,10.03
2023-03-28T19:01:03.285Z,7.20
2023-03-28T19:03:31.731Z,6.83
2023-03-28T19:06:00.097Z,11.50
2023-03-28T19:08:28.102Z,8.23
2023-03-28T19:10:56.391Z,6.03
2023-03-28T19:13:24.069Z,6.57
2023-03-28T19:16:01.945Z,7.50
2023-03-28T19:18:29.210Z,7.67
2023-03-28T19:20:57.018Z,6.07
2023-03-28T19:23:24.543Z,7.10
2023-03-28T19:25:51.805Z,9.70
2023-03-28T19:28:19.385Z,7.33
2023-03-28T19:30:46.851Z,8.87
2023-03-28T19:33:14.139Z,5.87
2023-03-28T19:35:42.288Z,7.37
2023-03-28T19:38:09.411Z,6.60
2023-03-28T19:40:36.511Z,9.03
2023-03-28T19:43:03.746Z,8.57
2023-03-28T19:45:30.882Z,6.73
2023-03-28T19:47:58.142Z,6.80
2023-03-28T19:50:25.238Z,4.83
2023-03-28T19:52:52.311Z,6.80
2023-03-28T19:55:19.447Z,3.63
2023-03-28T19:57:46.503Z,4.83
2023-03-28T20:00:14.019Z,4.87
2023-03-28T20:02:41.286Z,6.83
2023-03-28T20:05:08.651Z,4.10
2023-03-28T20:07:35.719Z,5.87
2023-03-28T20:10:02.933Z,4.83
2023-03-28T20:12:30.702Z,3.77
2023-03-28T20:14:57.815Z,7.00
2023-03-28T20:17:24.911Z,2.53
2023-03-28T20:19:52.033Z,4.00
2023-03-28T20:22:20.114Z,3.97
2023-03-28T20:24:48.821Z,5.13
2023-03-28T20:27:16.947Z,6.87
2023-03-28T20:29:45.418Z,8.70
2023-03-28T20:32:12.520Z,7.27
2023-03-28T20:34:39.563Z,8.27
2023-03-28T20:37:06.624Z,6.90
2023-03-28T20:39:37.094Z,5.80
2023-03-28T20:42:05.622Z,5.43
2023-03-28T20:44:38.206Z,5.17
2023-03-28T20:47:09.111Z,6.17
2023-03-28T20:49:38.207Z,4.50
2023-03-28T20:52:07.819Z,4.73
2023-03-28T20:54:35.130Z,5.23
2023-03-28T20:57:02.402Z,6.47
2023-03-28T20:59:30.081Z,4.63
2023-03-28T21:01:57.325Z,8.23
2023-03-28T21:04:24.902Z,6.50
2023-03-28T21:06:52.045Z,7.73
2023-03-28T21:09:19.591Z,8.57
2023-03-28T21:11:46.771Z,5.73
2023-03-28T21:14:14.647Z,7.20
2023-03-28T21:16:42.023Z,6.40
2023-03-28T21:19:09.365Z,11.10
2023-03-28T21:21:36.637Z,8.47
2023-03-28T21:24:04.599Z,5.03
2023-03-28T21:26:31.943Z,9.17
2023-03-28T21:28:59.370Z,8.50
2023-03-28T21:31:28.150Z,6.60
2023-03-28T21:33:59.356Z,5.47
2023-03-28T21:36:27.164Z,4.67
2023-03-28T21:38:54.272Z,5.87
2023-03-28T21:41:22.509Z,6.03
2023-03-28T21:43:50.126Z,5.90
2023-03-28T21:46:18.599Z,6.90
2023-03-28T21:48:47.845Z,7.17
2023-03-28T21:51:15.738Z,7.00
2023-03-28T21:53:42.883Z,7.03
2023-03-28T21:56:11.764Z,7.93
2023-03-28T21:58:39.159Z,7.27
2023-03-28T22:01:06.668Z,6.53
2023-03-28T22:03:36.856Z,5.23
2023-03-28T22:06:04.062Z,8.03
2023-03-28T22:08:31.335Z,6.33
2023-03-28T22:11:01.215Z,7.00
2023-03-28T22:13:29.795Z,8.37
2023-03-28T22:16:00.497Z,7.40
2023-03-28T22:18:28.073Z,5.37
2023-03-28T22:20:55.494Z,6.27
2023-03-28T22:23:23.390Z,5.83
2023-03-28T22:25:50.907Z,6.33
2023-03-28T22:28:24.055Z,5.63
2023-03-28T22:30:53.613Z,8.43
2023-03-28T22:33:20.928Z,6.10
2023-03-28T22:35:48.604Z,5.70
2023-03-28T22:38:15.923Z,6.10
2023-03-28T22:40:43.023Z,4.03
2023-03-28T22:43:10.309Z,6.07
2023-03-28T22:45:37.630Z,5.57
2023-03-28T22:48:14.054Z,6.30
2023-03-28T22:50:41.644Z,4.70
2023-03-28T22:53:09.842Z,3.63
2023-03-28T22:55:37.045Z,3.53
2023-03-28T22:58:04.151Z,7.20
2023-03-28T23:00:31.603Z,5.20
2023-03-28T23:02:58.696Z,5.63
2023-03-28T23:05:26.020Z,6.23
2023-03-28T23:07:53.896Z,6.63
2023-03-28T23:10:21.176Z,6.43
2023-03-28T23:12:48.872Z,4.87
2023-03-28T23:15:16.053Z,6.87
2023-03-28T23:17:43.489Z,4.70
2023-03-28T23:20:14.705Z,5.37
2023-03-28T23:22:42.783Z,4.47
2023-03-28T23:25:12.344Z,6.83
2023-03-28T23:27:39.712Z,3.53
2023-03-28T23:30:07.611Z,4.70
2023-03-28T23:32:34.713Z,4.07
2023-03-28T23:35:02.009Z,5.00
2023-03-28T23:37:29.131Z,5.43
2023-03-28T23:39:57.494Z,4.13
2023-03-28T23:42:24.995Z,6.27
2023-03-28T23:44:52.637Z,3.30
2023-03-28T23:47:23.107Z,3.57
2023-03-28T23:49:50.316Z,4.93
2023-03-28T23:52:17.428Z,3.23
2023-03-28T23:54:45.492Z,7.33
2023-03-28T23:57:12.627Z,5.33
2023-03-28T23:59:39.839Z,5.17
